createdAt,value
2019-05-21T00:00:37.578Z,69.50
2019-05-21T00:03:06.258Z,69.60
2019-05-21T00:05:35.044Z,69.80
2019-05-21T00:08:03.738Z,70.00
2019-05-21T00:10:32.436Z,70.40
2019-05-21T00:13:01.159Z,70.20
2019-05-21T00:15:29.841Z,70.40
2019-05-21T00:17:58.591Z,70.50
2019-05-21T00:20:27.266Z,70.40
2019-05-21T00:22:55.953Z,70.80
2019-05-21T00:25:24.720Z,71.30
2019-05-21T00:27:56.664Z,71.70
2019-05-21T00:31:02.199Z,71.80
2019-05-21T00:34:07.538Z,71.80
2019-05-21T00:37:14.366Z,71.60
2019-05-21T00:40:19.611Z,71.70
2019-05-21T00:42:48.398Z,71.70
2019-05-21T00:45:17.088Z,71.70
2019-05-21T00:47:45.778Z,72.10
2019-05-21T00:50:14.512Z,72.50
2019-05-21T00:52:43.190Z,72.70
2019-05-21T00:55:11.960Z,72.60
2019-05-21T00:57:40.653Z,72.80
2019-05-21T01:00:10.014Z,72.90
2019-05-21T01:02:38.907Z,72.70
2019-05-21T01:05:07.586Z,73.00
2019-05-21T01:07:37.859Z,73.40
2019-05-21T01:10:06.969Z,73.40
2019-05-21T01:12:35.738Z,74.20
2019-05-21T01:15:06.705Z,74.20
2019-05-21T01:17:35.390Z,74.20
2019-05-21T01:20:04.071Z,74.20
2019-05-21T01:22:32.798Z,74.10
2019-05-21T01:25:01.487Z,74.30
2019-05-21T01:27:30.239Z,74.10
2019-05-21T01:29:58.914Z,73.90
2019-05-21T01:32:27.602Z,74.00
2019-05-21T01:34:56.353Z,73.80
2019-05-21T01:37:25.016Z,74.00
2019-05-21T01:39:53.786Z,74.10
2019-05-21T01:42:22.465Z,74.70
2019-05-21T01:44:51.147Z,73.80
2019-05-21T01:47:19.874Z,73.90
2019-05-21T01:49:48.567Z,73.90
2019-05-21T01:52:17.315Z,74.10
2019-05-21T01:54:46.012Z,74.40
2019-05-21T01:57:14.730Z,74.20
2019-05-21T01:59:43.537Z,74.50
2019-05-21T02:02:12.226Z,74.40
2019-05-21T02:04:40.916Z,74.50
2019-05-21T02:07:09.622Z,74.20
2019-05-21T02:09:56.487Z,74.40
2019-05-21T02:12:25.754Z,74.20
2019-05-21T02:14:54.449Z,74.30
2019-05-21T02:17:23.126Z,75.30
2019-05-21T02:19:51.845Z,74.60
2019-05-21T02:22:20.530Z,74.50
2019-05-21T02:24:49.279Z,74.80
2019-05-21T02:27:17.969Z,75.30
2019-05-21T02:29:46.654Z,75.30
2019-05-21T02:32:15.450Z,75.40
2019-05-21T02:34:44.139Z,76.00
2019-05-21T02:37:12.830Z,76.10
2019-05-21T02:39:41.553Z,75.80
2019-05-21T02:42:10.231Z,76.00
2019-05-21T02:44:38.999Z,76.00
2019-05-21T02:47:07.685Z,76.30
2019-05-21T02:49:36.362Z,76.60
2019-05-21T02:52:05.080Z,76.70
2019-05-21T02:54:40.893Z,76.70
2019-05-21T02:57:04.163Z,76.90
2019-05-21T02:59:32.862Z,77.20
2019-05-21T03:02:03.117Z,77.30
2019-05-21T03:04:31.849Z,77.50
2019-05-21T03:07:18.273Z,77.70
2019-05-21T03:09:48.025Z,77.80
2019-05-21T03:12:17.304Z,77.50
2019-05-21T03:14:46.295Z,77.70
2019-05-21T03:17:15.052Z,78.30
2019-05-21T03:19:43.735Z,78.20
2019-05-21T03:22:12.422Z,78.30
2019-05-21T03:24:41.148Z,78.30
2019-05-21T03:27:09.818Z,78.60
2019-05-21T03:29:38.608Z,78.50
2019-05-21T03:32:07.305Z,78.30
2019-05-21T03:34:35.991Z,78.00
2019-05-21T03:37:04.721Z,78.20
2019-05-21T03:39:33.617Z,78.10
2019-05-21T03:42:02.364Z,77.90
2019-05-21T03:44:31.044Z,78.30
2019-05-21T03:46:59.720Z,78.10
2019-05-21T03:49:28.447Z,78.20
2019-05-21T03:51:57.137Z,77.90
2019-05-21T03:54:25.914Z,78.20
2019-05-21T03:56:54.581Z,78.00
2019-05-21T03:59:23.266Z,78.20
2019-05-21T04:01:52.031Z,78.40
2019-05-21T04:04:20.719Z,78.30
2019-05-21T04:06:52.401Z,78.30
2019-05-21T04:09:19.787Z,78.70
2019-05-21T04:11:52.735Z,78.70
2019-05-21T04:14:32.313Z,79.00
2019-05-21T04:17:08.619Z,79.30
2019-05-21T04:19:38.928Z,79.00
2019-05-21T04:22:10.070Z,79.00
2019-05-21T04:24:38.770Z,79.40
2019-05-21T04:27:07.522Z,79.00
2019-05-21T04:29:36.209Z,78.90
2019-05-21T04:32:04.908Z,79.30
2019-05-21T04:34:33.639Z,79.40
2019-05-21T04:37:10.950Z,79.30
2019-05-21T04:39:32.693Z,79.30
2019-05-21T04:42:01.591Z,79.00
2019-05-21T04:44:30.287Z,78.60
2019-05-21T04:46:59.045Z,78.30
2019-05-21T04:49:27.734Z,78.00
2019-05-21T04:51:56.428Z,78.00
2019-05-21T04:54:25.174Z,78.10
2019-05-21T04:56:53.852Z,78.30
2019-05-21T04:59:22.649Z,78.20
2019-05-21T05:01:51.325Z,78.20
2019-05-21T05:04:21.986Z,78.00
2019-05-21T05:06:50.492Z,77.30
2019-05-21T05:09:19.279Z,76.80
2019-05-21T05:11:47.969Z,76.70
2019-05-21T05:14:16.690Z,76.60
2019-05-21T05:16:45.387Z,76.80
2019-05-21T05:19:14.151Z,76.70
2019-05-21T05:21:42.833Z,76.50
2019-05-21T05:24:11.543Z,77.30
2019-05-21T05:26:40.258Z,77.60
2019-05-21T05:29:08.954Z,78.10
2019-05-21T05:31:37.705Z,78.20
2019-05-21T05:34:06.415Z,78.30
2019-05-21T05:36:35.123Z,78.30
2019-05-21T05:39:05.051Z,78.40
2019-05-21T05:41:33.734Z,78.40
2019-05-21T05:44:02.487Z,78.40
2019-05-21T05:46:31.177Z,78.30
2019-05-21T05:49:04.558Z,78.30
2019-05-21T05:51:33.395Z,78.20
2019-05-21T05:54:02.123Z,77.90
2019-05-21T05:56:30.779Z,77.50
2019-05-21T05:58:59.530Z,77.90
2019-05-21T06:01:29.716Z,77.60
2019-05-21T06:03:58.461Z,76.70
2019-05-21T06:06:27.152Z,76.30
2019-05-21T06:08:55.835Z,76.50
2019-05-21T06:11:24.557Z,76.10
2019-05-21T06:13:53.259Z,75.00
2019-05-21T06:16:22.009Z,75.50
2019-05-21T06:18:50.690Z,75.40
2019-05-21T06:21:19.393Z,75.10
2019-05-21T06:23:48.110Z,75.80
2019-05-21T06:26:16.818Z,74.90
2019-05-21T06:28:45.566Z,74.70
2019-05-21T06:31:14.252Z,74.10
2019-05-21T06:33:46.239Z,74.00
2019-05-21T06:36:14.989Z,73.50
2019-05-21T06:38:44.857Z,72.60
2019-05-21T06:41:13.556Z,72.40
2019-05-21T06:43:42.292Z,72.20
2019-05-21T06:46:10.959Z,72.20
2019-05-21T06:48:39.707Z,72.20
2019-05-21T06:51:08.388Z,72.20
2019-05-21T06:53:37.259Z,72.00
2019-05-21T06:56:07.540Z,72.20
2019-05-21T06:58:36.347Z,70.90
2019-05-21T07:01:05.100Z,69.60
2019-05-21T07:03:33.784Z,69.30
2019-05-21T07:06:02.858Z,69.40
2019-05-21T07:08:34.722Z,69.50
2019-05-21T07:11:02.033Z,69.40
2019-05-21T07:13:31.288Z,69.40
2019-05-21T07:16:00.101Z,69.10
2019-05-21T07:18:28.806Z,68.40
2019-05-21T07:20:57.547Z,67.00
2019-05-21T07:23:26.247Z,66.40
2019-05-21T07:25:55.013Z,65.20
2019-05-21T07:28:23.705Z,64.50
2019-05-21T07:30:52.404Z,64.90
2019-05-21T07:33:21.174Z,65.00
2019-05-21T07:35:49.885Z,65.80
2019-05-21T07:38:18.578Z,66.30
2019-05-21T07:40:47.310Z,66.90
2019-05-21T07:43:16.000Z,67.20
2019-05-21T07:45:44.796Z,66.30
2019-05-21T07:48:13.482Z,66.30
2019-05-21T07:50:42.174Z,66.30
2019-05-21T07:53:10.919Z,66.00
2019-05-21T07:55:39.604Z,66.50
2019-05-21T07:58:08.375Z,65.90
2019-05-21T08:00:37.075Z,65.70
2019-05-21T08:03:05.769Z,64.70
2019-05-21T08:05:34.506Z,63.70
2019-05-21T08:08:03.224Z,63.50
2019-05-21T08:10:32.027Z,62.40
2019-05-21T08:13:00.716Z,62.60
2019-05-21T08:15:29.414Z,62.30
2019-05-21T08:17:58.185Z,62.50
2019-05-21T08:20:26.872Z,64.40
2019-05-21T08:22:55.568Z,64.20
2019-05-21T08:25:24.324Z,64.10
2019-05-21T08:27:53.029Z,64.10
2019-05-21T08:30:21.772Z,63.80
2019-05-21T08:32:50.469Z,62.40
2019-05-21T08:35:19.162Z,61.50
2019-05-21T08:37:47.907Z,61.30
2019-05-21T08:40:16.606Z,62.10
2019-05-21T08:42:45.366Z,62.40
2019-05-21T08:45:14.058Z,63.30
2019-05-21T08:47:42.762Z,61.60
2019-05-21T08:50:11.493Z,62.20
2019-05-21T08:52:40.190Z,61.10
2019-05-21T08:55:09.128Z,59.80
2019-05-21T08:57:37.872Z,61.00
2019-05-21T09:00:12.075Z,60.50
2019-05-21T09:02:40.839Z,60.00
2019-05-21T09:05:09.543Z,58.60
2019-05-21T09:07:38.235Z,59.40
2019-05-21T09:10:07.778Z,59.50
2019-05-21T09:12:36.520Z,60.90
2019-05-21T09:15:06.762Z,60.00
2019-05-21T09:17:35.456Z,59.60
2019-05-21T09:20:06.318Z,60.70
2019-05-21T09:22:35.094Z,60.00
2019-05-21T09:25:04.304Z,59.30
2019-05-21T09:27:33.291Z,59.80
2019-05-21T09:30:02.017Z,58.90
2019-05-21T09:32:30.819Z,59.00
2019-05-21T09:34:59.648Z,58.90
2019-05-21T09:37:28.330Z,59.40
2019-05-21T09:39:57.030Z,59.70
2019-05-21T09:42:25.771Z,60.10
2019-05-21T09:44:54.473Z,58.50
2019-05-21T09:47:23.332Z,58.20
2019-05-21T09:49:52.738Z,56.40
2019-05-21T09:52:21.438Z,56.60
2019-05-21T09:54:50.186Z,57.50
2019-05-21T09:57:23.302Z,58.60
2019-05-21T10:00:05.632Z,56.60
2019-05-21T10:02:35.555Z,56.60
2019-05-21T10:05:05.738Z,57.00
2019-05-21T10:07:39.816Z,56.80
2019-05-21T10:10:06.844Z,57.10
2019-05-21T10:12:35.634Z,56.90
2019-05-21T10:15:06.464Z,56.40
2019-05-21T10:17:35.152Z,55.70
2019-05-21T10:20:05.226Z,55.70
2019-05-21T10:22:33.924Z,54.50
2019-05-21T10:25:02.637Z,53.60
2019-05-21T10:27:31.354Z,51.00
2019-05-21T10:30:00.061Z,49.60
2019-05-21T10:32:28.820Z,50.60
2019-05-21T10:34:57.514Z,52.70
2019-05-21T10:37:26.198Z,53.10
2019-05-21T10:39:54.928Z,52.50
2019-05-21T10:42:23.622Z,51.50
2019-05-21T10:44:52.372Z,52.00
2019-05-21T10:47:21.114Z,51.10
2019-05-21T10:49:49.820Z,52.40
2019-05-21T10:52:18.550Z,52.00
2019-05-21T10:54:47.253Z,52.70
2019-05-21T10:57:16.018Z,52.90
2019-05-21T10:59:44.726Z,52.30
2019-05-21T11:02:17.787Z,51.40
2019-05-21T11:04:48.108Z,51.60
2019-05-21T11:07:17.806Z,49.40
2019-05-21T11:09:46.595Z,49.50
2019-05-21T11:12:15.314Z,49.10
2019-05-21T11:14:43.980Z,48.50
2019-05-21T11:17:13.034Z,48.60
2019-05-21T11:19:41.735Z,48.90
2019-05-21T11:22:10.417Z,48.40
2019-05-21T11:24:39.146Z,48.70
2019-05-21T11:27:07.842Z,49.00
2019-05-21T11:29:36.640Z,48.30
2019-05-21T11:32:05.335Z,48.00
2019-05-21T11:34:34.034Z,48.20
2019-05-21T11:37:02.815Z,49.30
2019-05-21T11:39:31.499Z,49.70
2019-05-21T11:42:00.280Z,47.80
2019-05-21T11:44:29.067Z,47.60
2019-05-21T11:46:57.758Z,46.50
2019-05-21T11:49:26.543Z,46.80
2019-05-21T11:51:55.418Z,46.70
2019-05-21T11:54:24.112Z,45.00
2019-05-21T11:56:52.838Z,46.40
2019-05-21T11:59:21.539Z,46.60
2019-05-21T12:01:50.305Z,45.50
2019-05-21T12:04:18.999Z,47.60
2019-05-21T12:06:47.688Z,47.20
2019-05-21T12:09:16.425Z,44.20
2019-05-21T12:11:45.112Z,44.20
2019-05-21T12:14:13.905Z,42.30
2019-05-21T12:16:42.828Z,43.60
2019-05-21T12:19:11.526Z,43.00
2019-05-21T12:21:40.269Z,45.20
2019-05-21T12:24:08.959Z,44.30
2019-05-21T12:26:37.728Z,44.80
2019-05-21T12:29:06.434Z,44.80
2019-05-21T12:31:35.117Z,45.30
2019-05-21T12:34:03.889Z,45.40
2019-05-21T12:36:35.738Z,43.30
2019-05-21T12:39:14.148Z,43.50
2019-05-21T12:41:36.823Z,45.80
2019-05-21T12:44:05.527Z,45.60
2019-05-21T12:46:34.315Z,45.40
2019-05-21T12:49:03.059Z,45.90
2019-05-21T12:51:31.798Z,45.00
2019-05-21T12:54:00.536Z,44.40
2019-05-21T12:56:29.248Z,45.40
2019-05-21T12:59:00.853Z,44.40
2019-05-21T13:01:28.372Z,44.70
2019-05-21T13:03:57.085Z,43.90
2019-05-21T13:06:25.845Z,43.70
2019-05-21T13:08:54.558Z,42.10
2019-05-21T13:11:23.319Z,42.30
2019-05-21T13:13:51.997Z,41.60
2019-05-21T13:16:20.693Z,41.40
2019-05-21T13:18:49.427Z,43.10
2019-05-21T13:21:18.098Z,43.70
2019-05-21T13:23:46.781Z,40.70
2019-05-21T13:26:15.513Z,41.20
2019-05-21T13:28:44.214Z,42.70
2019-05-21T13:31:12.972Z,42.80
2019-05-21T13:33:41.658Z,42.90
2019-05-21T13:36:10.402Z,43.80
2019-05-21T13:38:39.102Z,43.30
2019-05-21T13:41:09.358Z,42.90
2019-05-21T13:43:38.150Z,43.60
2019-05-21T13:46:06.830Z,44.90
2019-05-21T13:48:35.514Z,44.60
2019-05-21T13:51:04.262Z,44.60
2019-05-21T13:53:32.955Z,44.80
2019-05-21T13:56:01.638Z,44.80
2019-05-21T13:58:30.362Z,44.80
2019-05-21T14:00:59.157Z,45.90
2019-05-21T14:03:27.894Z,46.20
2019-05-21T14:05:56.585Z,46.50
2019-05-21T14:08:25.298Z,46.50
2019-05-21T14:10:54.016Z,46.20
2019-05-21T14:13:22.699Z,45.00
2019-05-21T14:15:51.478Z,43.80
2019-05-21T14:18:20.164Z,44.80
2019-05-21T14:20:48.849Z,44.80
2019-05-21T14:23:17.586Z,43.20
2019-05-21T14:25:46.260Z,42.10
2019-05-21T14:28:15.018Z,39.00
2019-05-21T14:30:43.706Z,34.60
2019-05-21T14:33:12.401Z,31.40
2019-05-21T14:35:41.114Z,28.90
2019-05-21T14:38:09.798Z,28.30
2019-05-21T14:40:38.584Z,29.20
2019-05-21T14:43:07.280Z,31.00
2019-05-21T14:45:35.964Z,31.00
2019-05-21T14:48:04.743Z,31.10
2019-05-21T14:50:33.475Z,28.50
2019-05-21T14:53:02.148Z,28.30
2019-05-21T14:55:30.840Z,27.80
2019-05-21T14:57:59.539Z,27.40
2019-05-21T15:00:35.724Z,27.40
2019-05-21T15:03:04.404Z,29.30
2019-05-21T15:05:34.310Z,31.00
2019-05-21T15:08:04.454Z,34.00
2019-05-21T15:10:47.201Z,36.20
2019-05-21T15:13:05.902Z,37.90
2019-05-21T15:15:34.990Z,37.50
2019-05-21T15:18:03.689Z,37.40
2019-05-21T15:20:40.075Z,38.30
2019-05-21T15:23:08.842Z,39.90
2019-05-21T15:25:37.526Z,38.40
2019-05-21T15:28:06.222Z,38.00
2019-05-21T15:30:34.951Z,38.50
2019-05-21T15:33:03.621Z,39.80
2019-05-21T15:35:32.974Z,39.60
2019-05-21T15:38:01.665Z,41.40
2019-05-21T15:40:30.363Z,42.10
2019-05-21T15:42:59.065Z,42.80
2019-05-21T15:45:27.749Z,43.00
2019-05-21T15:47:56.479Z,45.50
2019-05-21T15:50:25.177Z,46.60
2019-05-21T15:52:53.859Z,47.30
2019-05-21T15:55:22.567Z,47.60
2019-05-21T15:57:51.258Z,47.60
2019-05-21T16:00:20.149Z,48.60
2019-05-21T16:02:48.841Z,49.30
2019-05-21T16:05:17.520Z,50.10
2019-05-21T16:07:46.241Z,50.30
2019-05-21T16:10:14.920Z,50.70
2019-05-21T16:12:43.665Z,50.80
2019-05-21T16:15:12.354Z,51.00
2019-05-21T16:17:41.048Z,51.10
2019-05-21T16:20:09.758Z,51.70
2019-05-21T16:22:38.455Z,52.30
2019-05-21T16:25:07.214Z,51.70
2019-05-21T16:27:35.886Z,52.00
2019-05-21T16:30:06.494Z,52.20
2019-05-21T16:32:35.218Z,52.00
2019-05-21T16:35:06.062Z,52.90
2019-05-21T16:37:34.842Z,53.80
2019-05-21T16:40:04.226Z,54.40
2019-05-21T16:42:32.914Z,55.10
2019-05-21T16:45:01.667Z,55.80
2019-05-21T16:47:44.007Z,56.20
2019-05-21T16:50:00.759Z,56.20
2019-05-21T16:52:29.429Z,57.00
2019-05-21T16:54:58.170Z,56.60
2019-05-21T16:57:26.902Z,54.90
2019-05-21T16:59:55.572Z,55.10
2019-05-21T17:02:24.326Z,55.40
2019-05-21T17:04:53.000Z,56.00
2019-05-21T17:07:21.688Z,55.60
2019-05-21T17:09:50.410Z,56.20
2019-05-21T17:12:19.095Z,57.20
2019-05-21T17:14:49.915Z,57.80
2019-05-21T17:17:18.296Z,57.80
2019-05-21T17:19:47.030Z,57.80
2019-05-21T17:22:15.762Z,58.80
2019-05-21T17:24:44.454Z,60.00
2019-05-21T17:27:13.304Z,59.50
2019-05-21T17:29:42.022Z,61.20
2019-05-21T17:32:10.725Z,62.30
2019-05-21T17:34:39.418Z,62.30
2019-05-21T17:37:08.094Z,62.90
2019-05-21T17:39:36.900Z,63.00
2019-05-21T17:42:15.025Z,62.20
2019-05-21T17:44:36.417Z,63.40
2019-05-21T17:47:05.140Z,63.50
2019-05-21T17:49:33.818Z,62.90
2019-05-21T17:52:02.722Z,61.90
2019-05-21T17:54:31.463Z,62.00
2019-05-21T17:57:00.133Z,61.50
2019-05-21T17:59:28.874Z,61.10
2019-05-21T18:01:57.770Z,61.20
2019-05-21T18:04:26.446Z,62.00
2019-05-21T18:06:56.675Z,64.10
2019-05-21T18:09:26.684Z,64.00
2019-05-21T18:11:55.460Z,64.90
2019-05-21T18:14:24.153Z,65.10
2019-05-21T18:16:52.836Z,65.20
2019-05-21T18:19:21.563Z,65.40
2019-05-21T18:21:50.461Z,65.60
2019-05-21T18:24:19.230Z,65.40
2019-05-21T18:26:47.950Z,66.20
2019-05-21T18:29:16.627Z,65.60
2019-05-21T18:31:45.549Z,64.70
2019-05-21T18:34:14.238Z,65.70
2019-05-21T18:36:43.036Z,67.70
2019-05-21T18:39:11.728Z,67.30
2019-05-21T18:41:40.430Z,66.80
2019-05-21T18:44:09.575Z,66.60
2019-05-21T18:46:38.259Z,68.00
2019-05-21T18:49:07.189Z,68.70
2019-05-21T18:51:35.894Z,69.00
2019-05-21T18:54:04.579Z,68.50
2019-05-21T18:56:33.324Z,68.50
2019-05-21T18:59:01.997Z,68.70
2019-05-21T19:01:31.084Z,68.50
2019-05-21T19:04:11.523Z,68.90
2019-05-21T19:07:04.821Z,68.00
2019-05-21T19:09:37.445Z,67.60
2019-05-21T19:12:09.337Z,67.20
2019-05-21T19:14:46.156Z,67.50
2019-05-21T19:17:35.059Z,67.50
2019-05-21T19:19:57.048Z,67.90
2019-05-21T19:22:29.502Z,68.20
2019-05-21T19:24:58.513Z,68.30
2019-05-21T19:27:27.193Z,69.10
2019-05-21T19:29:55.964Z,69.00
2019-05-21T19:32:24.647Z,69.60
2019-05-21T19:34:53.336Z,68.90
2019-05-21T19:37:22.083Z,68.90
2019-05-21T19:39:50.790Z,68.80
2019-05-21T19:42:19.552Z,68.20
2019-05-21T19:44:48.250Z,68.00
2019-05-21T19:47:16.932Z,68.20
2019-05-21T19:49:45.661Z,67.80
2019-05-21T19:52:14.353Z,68.20
2019-05-21T19:54:43.087Z,68.50
2019-05-21T19:57:11.794Z,69.60
2019-05-21T19:59:40.486Z,70.90
2019-05-21T20:02:09.360Z,72.70
2019-05-21T20:04:38.036Z,73.50
2019-05-21T20:07:08.359Z,74.20
2019-05-21T20:09:38.167Z,75.30
2019-05-21T20:12:07.947Z,76.10
2019-05-21T20:14:37.083Z,74.90
2019-05-21T20:17:05.954Z,75.90
2019-05-21T20:19:35.027Z,75.70
2019-05-21T20:22:04.749Z,76.10
2019-05-21T20:24:33.443Z,75.50
2019-05-21T20:27:02.900Z,76.80
2019-05-21T20:29:31.895Z,77.50
2019-05-21T20:32:00.735Z,78.10
2019-05-21T20:34:29.912Z,77.90
2019-05-21T20:36:58.599Z,79.00
2019-05-21T20:39:28.938Z,78.40
2019-05-21T20:41:57.922Z,78.60
2019-05-21T20:44:27.010Z,77.80
2019-05-21T20:46:57.228Z,77.90
2019-05-21T20:49:26.418Z,80.30
2019-05-21T20:51:55.294Z,81.70
2019-05-21T20:54:25.283Z,83.40
2019-05-21T20:56:53.962Z,83.90
2019-05-21T20:59:22.716Z,85.70
2019-05-21T21:01:51.410Z,86.50
2019-05-21T21:04:20.183Z,85.70
2019-05-21T21:06:48.951Z,85.70
2019-05-21T21:09:17.667Z,86.60
2019-05-21T21:11:46.467Z,88.70
2019-05-21T21:14:18.253Z,88.50
2019-05-21T21:16:46.783Z,88.20
2019-05-21T21:19:15.852Z,89.50
2019-05-21T21:21:44.554Z,90.00
2019-05-21T21:24:13.433Z,89.30
2019-05-21T21:26:42.412Z,90.30
2019-05-21T21:29:11.092Z,90.30
2019-05-21T21:31:39.809Z,90.90
2019-05-21T21:34:08.999Z,90.80
2019-05-21T21:36:38.160Z,90.20
2019-05-21T21:39:07.934Z,90.70
2019-05-21T21:41:36.991Z,90.80
2019-05-21T21:44:05.846Z,90.90
2019-05-21T21:46:34.596Z,91.10
2019-05-21T21:49:03.419Z,90.90
2019-05-21T21:51:32.318Z,90.50
2019-05-21T21:54:01.738Z,90.60
2019-05-21T21:56:33.727Z,90.80
2019-05-21T21:59:05.777Z,90.80
2019-05-21T22:01:56.085Z,90.80
2019-05-21T22:04:30.128Z,90.90
2019-05-21T22:07:01.999Z,91.00
2019-05-21T22:09:31.980Z,90.90
2019-05-21T22:12:04.526Z,91.00
2019-05-21T22:14:49.198Z,91.10
2019-05-21T22:17:07.422Z,91.20
2019-05-21T22:19:38.856Z,91.50
2019-05-21T22:22:08.342Z,91.90
2019-05-21T22:24:42.990Z,91.00
2019-05-21T22:27:14.732Z,91.70
2019-05-21T22:29:49.201Z,91.00
2019-05-21T22:32:21.074Z,90.90
2019-05-21T22:34:49.747Z,90.80
2019-05-21T22:37:22.886Z,91.20
2019-05-21T22:39:55.376Z,90.90
2019-05-21T22:42:24.558Z,91.00
2019-05-21T22:45:07.518Z,91.80
2019-05-21T22:47:27.569Z,91.30
2019-05-21T22:49:58.923Z,91.10
2019-05-21T22:52:31.118Z,91.10
2019-05-21T22:54:59.818Z,90.80
2019-05-21T22:57:32.186Z,90.70
2019-05-21T23:00:03.981Z,90.90
2019-05-21T23:02:34.466Z,91.10
2019-05-21T23:05:10.166Z,91.40
2019-05-21T23:07:38.850Z,91.50
2019-05-21T23:10:11.271Z,91.50
2019-05-21T23:12:44.088Z,91.60
2019-05-21T23:15:24.239Z,91.60
2019-05-21T23:17:45.883Z,91.60
2019-05-21T23:20:15.076Z,91.80
2019-05-21T23:22:48.076Z,91.80
2019-05-21T23:25:20.535Z,92.00
2019-05-21T23:27:53.850Z,92.00
2019-05-21T23:30:23.239Z,92.00
2019-05-21T23:32:52.317Z,92.60
2019-05-21T23:35:22.019Z,92.30
2019-05-21T23:37:50.914Z,91.90
2019-05-21T23:40:19.594Z,92.00
2019-05-21T23:42:48.337Z,92.10
2019-05-21T23:45:17.330Z,91.90
2019-05-21T23:47:45.994Z,92.10
2019-05-21T23:50:15.418Z,92.20
2019-05-21T23:52:45.208Z,92.30
2019-05-21T23:55:14.681Z,92.40
2019-05-21T23:57:43.342Z,92.70
